Time;durP1;ratioP1;P1;durP2;ratioP2;P2;SDS_P1;SDS_P2;PMS_P1;PMS_P2;Temp;Humidity;BMP_temperature;BMP_pressure;BME280_temperature;BME280_humidity;BME280_pressure;Samples;Min_cycle;Max_cycle;Signal;HPM_P1;HPM_P2
2022/11/18 18:07:16;;;;;;;;;;;9.60;99.90;;;;;;5088113;28;20298;-71
2022/11/18 18:09:43;;;;;;;;;;;9.30;99.90;;;;;;5081152;28;19960;-71
2022/11/18 18:14:50;;;;;;;;;;;9.30;99.90;;;;;;5074561;28;19968;-70
2022/11/18 18:17:17;;;;;;;;;;;9.30;99.90;;;;;;5079575;28;19936;-71
2022/11/18 18:19:43;;;;;;;;;;;9.30;99.90;;;;;;5079638;28;19924;-71
2022/11/18 18:22:10;;;;;;;;;;;9.30;99.90;;;;;;5072809;28;20382;-71
2022/11/18 18:24:38;;;;;;;;;;;9.20;99.90;;;;;;5086164;28;19932;-71
2022/11/18 18:27:05;;;;;;;;;;;9.20;99.90;;;;;;5093873;28;19932;-71
2022/11/18 18:29:32;;;;;;;;;;;9.10;99.90;;;;;;5084748;28;19931;-70
2022/11/18 18:31:59;;;;;;;;;;;9.10;99.90;;;;;;5073591;28;19978;-71
2022/11/18 18:34:26;;;;;;;;;;;9.10;99.90;;;;;;5079451;28;19924;-71
2022/11/18 18:36:52;;;;;;;;;;;9.10;99.90;;;;;;5072805;28;19996;-71
2022/11/18 18:39:19;;;;;;;;;;;9.10;99.90;;;;;;5070806;28;19925;-71
2022/11/18 18:41:47;;;;;;;;;;;9.10;99.90;;;;;;5086172;28;20011;-71
2022/11/18 18:44:14;;;;;;;;;;;9.10;99.90;;;;;;5095419;28;19924;-70
2022/11/18 18:46:40;;;;;;;;;;;9.10;99.90;;;;;;5064836;28;19929;-70
2022/11/18 18:49:07;;;;;;;;;;;9.00;99.90;;;;;;5085031;28;20288;-71
2022/11/18 18:51:35;;;;;;;;;;;9.00;99.90;;;;;;5078238;28;19932;-70
2022/11/18 18:54:02;;;;;;;;;;;9.00;99.90;;;;;;5082617;28;20333;-70
2022/11/18 18:56:29;;;;;;;;;;;9.00;99.90;;;;;;5075365;28;19931;-70
2022/11/18 18:58:57;;;;;;;;;;;9.00;99.90;;;;;;5076061;28;19935;-71
2022/11/18 19:01:24;;;;;;;;;;;9.00;99.90;;;;;;5078344;28;19956;-70
2022/11/18 19:03:53;;;;;;;;;;;9.00;99.90;;;;;;5075869;28;19928;-71
2022/11/18 19:06:21;;;;;;;;;;;9.00;99.90;;;;;;5077981;28;19931;-70
2022/11/18 19:08:48;;;;;;;;;;;9.00;99.90;;;;;;5077489;28;20387;-70
2022/11/18 19:14:02;;;;;;;;;;;9.00;99.90;;;;;;5077612;28;19965;-70
2022/11/18 19:16:29;;;;;;;;;;;9.00;99.90;;;;;;5089385;28;19924;-70
2022/11/18 19:18:57;;;;;;;;;;;9.00;99.90;;;;;;5059501;28;20349;-70
2022/11/18 19:21:23;;;;;;;;;;;8.90;99.90;;;;;;5053382;28;20415;-71
2022/11/18 19:23:50;;;;;;;;;;;8.90;99.90;;;;;;5057970;28;19975;-70
2022/11/18 19:26:17;;;;;;;;;;;8.90;99.90;;;;;;5046120;28;19925;-70
2022/11/18 19:28:44;;;;;;;;;;;8.90;99.90;;;;;;5059715;28;19932;-70
2022/11/18 19:31:14;;;;;;;;;;;8.80;99.90;;;;;;5063790;28;19968;-70
2022/11/18 19:33:41;;;;;;;;;;;8.80;99.90;;;;;;5053830;28;20398;-70
2022/11/18 19:36:08;;;;;;;;;;;8.80;99.90;;;;;;5046744;28;20068;-72
2022/11/18 19:38:35;;;;;;;;;;;8.80;99.90;;;;;;5057776;28;19959;-71
2022/11/18 19:41:02;;;;;;;;;;;8.80;99.90;;;;;;5051255;28;19925;-70
2022/11/18 19:43:29;;;;;;;;;;;8.80;99.90;;;;;;5053245;28;19979;-71
2022/11/18 19:45:56;;;;;;;;;;;8.80;99.90;;;;;;5058928;28;19933;-71
2022/11/18 19:48:24;;;;;;;;;;;8.80;99.90;;;;;;5048901;28;20619;-71
2022/11/18 19:50:51;;;;;;;;;;;8.70;99.90;;;;;;5059936;28;19925;-72
2022/11/18 19:53:33;;;;;;;;;;;8.80;99.90;;;;;;5056852;28;19936;-71
2022/11/18 19:56:01;;;;;;;;;;;8.70;99.90;;;;;;5054008;28;19925;-72
2022/11/18 19:58:28;;;;;;;;;;;8.80;99.90;;;;;;5066880;28;19943;-72
2022/11/18 20:00:55;;;;;;;;;;;8.80;99.90;;;;;;5058047;28;19925;-71
2022/11/18 20:03:21;;;;;;;;;;;8.80;99.90;;;;;;5054912;28;19925;-72
2022/11/18 20:05:52;;;;;;;;;;;8.80;99.90;;;;;;5058436;28;20008;-71
2022/11/18 20:08:19;;;;;;;;;;;8.80;99.90;;;;;;5054702;28;19931;-72
2022/11/18 20:10:46;;;;;;;;;;;8.80;99.90;;;;;;5056157;28;19928;-72
2022/11/18 20:13:13;;;;;;;;;;;8.80;99.90;;;;;;5064922;28;19990;-72
2022/11/18 20:15:39;;;;;;;;;;;8.70;99.90;;;;;;5064089;28;19925;-71
2022/11/18 20:18:06;;;;;;;;;;;8.70;99.90;;;;;;5063678;28;20376;-71
2022/11/18 20:20:33;;;;;;;;;;;8.60;99.90;;;;;;5066038;28;19925;-73
2022/11/18 20:23:01;;;;;;;;;;;8.60;99.90;;;;;;5062696;28;19929;-72
2022/11/18 20:25:28;;;;;;;;;;;8.60;99.90;;;;;;5067089;28;19990;-72
2022/11/18 20:27:55;;;;;;;;;;;8.60;99.90;;;;;;5072565;28;20323;-72
2022/11/18 20:30:22;;;;;;;;;;;8.60;99.90;;;;;;5056918;28;19925;-72
2022/11/18 20:32:49;;;;;;;;;;;8.60;99.90;;;;;;5053335;28;19964;-71
2022/11/18 20:35:16;;;;;;;;;;;8.60;99.90;;;;;;5058515;28;19971;-73
2022/11/18 20:37:42;;;;;;;;;;;8.60;99.90;;;;;;5057485;28;19970;-71
2022/11/18 20:40:11;;;;;;;;;;;8.60;99.90;;;;;;5061371;28;19925;-71
2022/11/18 20:45:23;;;;;;;;;;;8.60;99.90;;;;;;5050719;28;19925;-72
2022/11/18 20:47:49;;;;;;;;;;;8.50;99.90;;;;;;5058181;28;19932;-72
2022/11/18 20:50:16;;;;;;;;;;;8.50;99.90;;;;;;5048323;28;19925;-72
2022/11/18 20:52:43;;;;;;;;;;;8.50;99.90;;;;;;5071769;28;19925;-72
2022/11/18 20:55:11;;;;;;;;;;;8.50;99.90;;;;;;5054661;28;19928;-72
2022/11/18 20:57:38;;;;;;;;;;;8.40;99.90;;;;;;5065432;28;19932;-70
2022/11/18 21:00:05;;;;;;;;;;;8.40;99.90;;;;;;5080824;28;19955;-71
2022/11/18 21:02:32;;;;;;;;;;;8.40;99.90;;;;;;5051338;28;19925;-72
2022/11/18 21:04:59;;;;;;;;;;;8.50;99.90;;;;;;5052545;28;19925;-71
2022/11/18 21:07:26;;;;;;;;;;;8.50;99.90;;;;;;5060067;28;19924;-72
2022/11/18 21:09:52;;;;;;;;;;;8.50;99.90;;;;;;5061937;28;19932;-71
2022/11/18 21:12:21;;;;;;;;;;;8.50;99.90;;;;;;5059570;28;19928;-72
2022/11/18 21:14:47;;;;;;;;;;;8.50;99.90;;;;;;5061402;28;19971;-72
2022/11/18 21:17:14;;;;;;;;;;;8.50;99.90;;;;;;5060458;28;20430;-72
2022/11/18 21:19:41;;;;;;;;;;;8.50;99.90;;;;;;5062289;28;20394;-72
2022/11/18 21:22:06;;;;;;;;;;;8.50;99.90;;;;;;5058316;28;20027;-72
2022/11/18 21:24:34;;;;;;;;;;;8.50;99.90;;;;;;5060855;28;20016;-71
2022/11/18 21:27:01;;;;;;;;;;;8.60;99.90;;;;;;5063336;28;19929;-71
2022/11/18 21:29:30;;;;;;;;;;;8.60;99.90;;;;;;5053711;28;20509;-71
2022/11/18 21:31:59;;;;;;;;;;;8.60;99.90;;;;;;5051308;28;19929;-71
2022/11/18 21:34:26;;;;;;;;;;;8.60;99.90;;;;;;5052645;28;19931;-72
2022/11/18 21:36:52;;;;;;;;;;;8.70;99.90;;;;;;5044599;28;19960;-72
2022/11/18 21:39:19;;;;;;;;;;;8.60;99.90;;;;;;5050924;28;19937;-72
2022/11/18 21:41:46;;;;;;;;;;;8.60;99.90;;;;;;5062767;28;19924;-72
2022/11/18 21:44:13;;;;;;;;;;;8.60;99.90;;;;;;5056658;28;19925;-72
2022/11/18 21:46:41;;;;;;;;;;;8.60;99.90;;;;;;5054360;28;20406;-72
2022/11/18 21:49:09;;;;;;;;;;;8.60;99.90;;;;;;5061834;28;19943;-72
2022/11/18 21:51:35;;;;;;;;;;;8.60;99.90;;;;;;5052840;28;19937;-71
2022/11/18 21:54:02;;;;;;;;;;;8.60;99.90;;;;;;5050611;28;19929;-72
2022/11/18 21:56:30;;;;;;;;;;;8.60;99.90;;;;;;5051967;28;20015;-72
2022/11/18 21:58:57;;;;;;;;;;;8.60;99.90;;;;;;5075619;28;19978;-72
